sensor_id;sensor_type;location;lat;lon;timestamp;pressure;altitude;pressure_sealevel;temperature;humidity
36328;BME280;22354;50.012;8.264;2022-10-31T00:01:32;100686.63;;;11.71;100.00
36328;BME280;22354;50.012;8.264;2022-10-31T00:03:57;100689.09;;;11.82;100.00
36328;BME280;22354;50.012;8.264;2022-10-31T00:06:23;100688.88;;;11.76;100.00
36328;BME280;22354;50.012;8.264;2022-10-31T00:08:54;100695.06;;;11.76;100.00
36328;BME280;22354;50.012;8.264;2022-10-31T00:11:20;100696.31;;;11.82;100.00
36328;BME280;22354;50.012;8.264;2022-10-31T00:13:45;100695.06;;;11.76;100.00
36328;BME280;22354;50.012;8.264;2022-10-31T00:16:20;100702.34;;;11.66;100.00
36328;BME280;22354;50.012;8.264;2022-10-31T00:18:52;100707.03;;;11.64;100.00
36328;BME280;22354;50.012;8.264;2022-10-31T00:21:19;100700.69;;;11.65;100.00
36328;BME280;22354;50.012;8.264;2022-10-31T00:23:44;100702.34;;;11.66;100.00
36328;BME280;22354;50.012;8.264;2022-10-31T00:26:09;100705.34;;;11.63;100.00
36328;BME280;22354;50.012;8.264;2022-10-31T00:28:35;100700.84;;;11.64;100.00
36328;BME280;22354;50.012;8.264;2022-10-31T00:31:06;100706.72;;;11.67;100.00
36328;BME280;22354;50.012;8.264;2022-10-31T00:33:33;100704.72;;;11.69;100.00
36328;BME280;22354;50.012;8.264;2022-10-31T00:35:59;100707.13;;;11.72;100.00
36328;BME280;22354;50.012;8.264;2022-10-31T00:38:24;100703.53;;;11.81;100.00
36328;BME280;22354;50.012;8.264;2022-10-31T00:40:50;100708.06;;;11.81;100.00
36328;BME280;22354;50.012;8.264;2022-10-31T00:43:15;100707.75;;;11.84;100.00
36328;BME280;22354;50.012;8.264;2022-10-31T00:45:41;100712.03;;;11.77;100.00
36328;BME280;22354;50.012;8.264;2022-10-31T00:48:07;100725.84;;;11.82;100.00
36328;BME280;22354;50.012;8.264;2022-10-31T00:50:32;100726.44;;;11.76;100.00
36328;BME280;22354;50.012;8.264;2022-10-31T00:52:58;100726.88;;;11.71;100.00
36328;BME280;22354;50.012;8.264;2022-10-31T00:55:24;100736.03;;;11.78;100.00
36328;BME280;22354;50.012;8.264;2022-10-31T00:57:49;100735.25;;;11.68;100.00
36328;BME280;22354;50.012;8.264;2022-10-31T01:00:15;100735.03;;;11.62;100.00
36328;BME280;22354;50.012;8.264;2022-10-31T01:02:40;100737.78;;;11.70;100.00
36328;BME280;22354;50.012;8.264;2022-10-31T01:05:06;100729.81;;;11.60;100.00
36328;BME280;22354;50.012;8.264;2022-10-31T01:07:31;100740.69;;;11.41;100.00
36328;BME280;22354;50.012;8.264;2022-10-31T01:09:56;100734.53;;;11.31;100.00
36328;BME280;22354;50.012;8.264;2022-10-31T01:12:22;100733.16;;;11.44;100.00
36328;BME280;22354;50.012;8.264;2022-10-31T01:14:47;100730.63;;;11.43;100.00
36328;BME280;22354;50.012;8.264;2022-10-31T01:17:13;100732.31;;;11.44;100.00
36328;BME280;22354;50.012;8.264;2022-10-31T01:19:38;100722.75;;;11.41;100.00
36328;BME280;22354;50.012;8.264;2022-10-31T01:22:04;100728.34;;;11.48;100.00
36328;BME280;22354;50.012;8.264;2022-10-31T01:24:29;100722.31;;;11.46;100.00
36328;BME280;22354;50.012;8.264;2022-10-31T01:26:55;100725.72;;;11.38;100.00
36328;BME280;22354;50.012;8.264;2022-10-31T01:29:20;100719.56;;;11.28;100.00
36328;BME280;22354;50.012;8.264;2022-10-31T01:31:45;100732.31;;;11.26;100.00
36328;BME280;22354;50.012;8.264;2022-10-31T01:34:14;100722.03;;;11.21;100.00
36328;BME280;22354;50.012;8.264;2022-10-31T01:36:40;100717.06;;;11.27;100.00
36328;BME280;22354;50.012;8.264;2022-10-31T01:39:09;100715.75;;;11.31;100.00
36328;BME280;22354;50.012;8.264;2022-10-31T01:41:37;100715.59;;;11.32;100.00
36328;BME280;22354;50.012;8.264;2022-10-31T01:47:29;100716.44;;;11.33;100.00
36328;BME280;22354;50.012;8.264;2022-10-31T01:50:00;100711.38;;;11.30;100.00
36328;BME280;22354;50.012;8.264;2022-10-31T01:52:34;100709.47;;;11.40;100.00
36328;BME280;22354;50.012;8.264;2022-10-31T01:55:06;100708.56;;;11.49;100.00
36328;BME280;22354;50.012;8.264;2022-10-31T01:57:34;100711.72;;;11.62;100.00
36328;BME280;22354;50.012;8.264;2022-10-31T02:00:07;100723.47;;;11.61;100.00
36328;BME280;22354;50.012;8.264;2022-10-31T02:02:33;100725.47;;;11.59;100.00
36328;BME280;22354;50.012;8.264;2022-10-31T02:05:00;100740.16;;;11.55;100.00
36328;BME280;22354;50.012;8.264;2022-10-31T02:07:31;100747.13;;;11.66;100.00
36328;BME280;22354;50.012;8.264;2022-10-31T02:10:00;100756.13;;;11.74;100.00
36328;BME280;22354;50.012;8.264;2022-10-31T02:12:25;100770.22;;;11.76;100.00
36328;BME280;22354;50.012;8.264;2022-10-31T02:14:51;100777.03;;;11.71;100.00
36328;BME280;22354;50.012;8.264;2022-10-31T02:17:16;100788.75;;;11.52;100.00
36328;BME280;22354;50.012;8.264;2022-10-31T02:19:56;100789.97;;;11.40;100.00
36328;BME280;22354;50.012;8.264;2022-10-31T02:22:41;100798.00;;;11.40;100.00
36328;BME280;22354;50.012;8.264;2022-10-31T02:25:15;100810.22;;;11.52;100.00
36328;BME280;22354;50.012;8.264;2022-10-31T02:28:18;100810.53;;;11.49;100.00
36328;BME280;22354;50.012;8.264;2022-10-31T02:30:59;100815.78;;;11.41;100.00
36328;BME280;22354;50.012;8.264;2022-10-31T02:33:41;100822.75;;;11.34;100.00
36328;BME280;22354;50.012;8.264;2022-10-31T02:38:51;100814.97;;;11.58;100.00
36328;BME280;22354;50.012;8.264;2022-10-31T02:41:40;100811.31;;;11.59;100.00
36328;BME280;22354;50.012;8.264;2022-10-31T02:44:22;100814.09;;;11.40;100.00
36328;BME280;22354;50.012;8.264;2022-10-31T02:46:55;100808.34;;;11.35;100.00
36328;BME280;22354;50.012;8.264;2022-10-31T02:49:45;100804.72;;;11.26;100.00
36328;BME280;22354;50.012;8.264;2022-10-31T02:52:33;100801.03;;;11.27;100.00
36328;BME280;22354;50.012;8.264;2022-10-31T02:55:11;100794.44;;;11.21;100.00
36328;BME280;22354;50.012;8.264;2022-10-31T02:57:38;100792.59;;;11.22;100.00
36328;BME280;22354;50.012;8.264;2022-10-31T03:00:07;100780.19;;;11.21;100.00
36328;BME280;22354;50.012;8.264;2022-10-31T03:10:30;100777.03;;;10.98;100.00
36328;BME280;22354;50.012;8.264;2022-10-31T03:14:06;100769.50;;;11.11;100.00
36328;BME280;22354;50.012;8.264;2022-10-31T03:16:18;100758.34;;;11.06;100.00
36328;BME280;22354;50.012;8.264;2022-10-31T03:21:27;100762.59;;;11.09;100.00
36328;BME280;22354;50.012;8.264;2022-10-31T03:23:55;100768.69;;;11.01;100.00
36328;BME280;22354;50.012;8.264;2022-10-31T03:26:22;100765.03;;;11.02;100.00
36328;BME280;22354;50.012;8.264;2022-10-31T03:28:53;100763.63;;;10.98;100.00
36328;BME280;22354;50.012;8.264;2022-10-31T03:31:24;100752.50;;;10.93;100.00
36328;BME280;22354;50.012;8.264;2022-10-31T03:33:50;100747.44;;;10.90;100.00
36328;BME280;22354;50.012;8.264;2022-10-31T03:36:17;100742.84;;;10.82;100.00
36328;BME280;22354;50.012;8.264;2022-10-31T03:38:45;100736.03;;;10.88;100.00
36328;BME280;22354;50.012;8.264;2022-10-31T03:41:15;100734.34;;;10.87;100.00
36328;BME280;22354;50.012;8.264;2022-10-31T03:43:50;100728.72;;;10.80;100.00
36328;BME280;22354;50.012;8.264;2022-10-31T03:46:18;100721.81;;;10.78;100.00
36328;BME280;22354;50.012;8.264;2022-10-31T03:48:43;100721.13;;;10.76;100.00
36328;BME280;22354;50.012;8.264;2022-10-31T03:51:37;100714.34;;;10.81;100.00
36328;BME280;22354;50.012;8.264;2022-10-31T03:54:25;100712.78;;;10.79;100.00
36328;BME280;22354;50.012;8.264;2022-10-31T03:56:53;100706.19;;;10.73;100.00
36328;BME280;22354;50.012;8.264;2022-10-31T03:59:33;100708.19;;;10.71;100.00
36328;BME280;22354;50.012;8.264;2022-10-31T04:02:06;100699.19;;;10.62;100.00
36328;BME280;22354;50.012;8.264;2022-10-31T04:04:34;100705.66;;;10.70;100.00
36328;BME280;22354;50.012;8.264;2022-10-31T04:07:00;100701.97;;;10.71;100.00
36328;BME280;22354;50.012;8.264;2022-10-31T04:09:27;100702.81;;;10.71;100.00
36328;BME280;22354;50.012;8.264;2022-10-31T04:11:56;100707.88;;;10.74;100.00
36328;BME280;22354;50.012;8.264;2022-10-31T04:14:26;100705.34;;;10.73;100.00
36328;BME280;22354;50.012;8.264;2022-10-31T04:16:52;100709.88;;;10.72;100.00
36328;BME280;22354;50.012;8.264;2022-10-31T04:19:18;100711.00;;;10.70;100.00
36328;BME280;22354;50.012;8.264;2022-10-31T04:21:43;100720.47;;;10.64;100.00
36328;BME280;22354;50.012;8.264;2022-10-31T04:24:09;100724.03;;;10.55;100.00
36328;BME280;22354;50.012;8.264;2022-10-31T04:26:34;100721.75;;;10.60;100.00
36328;BME280;22354;50.012;8.264;2022-10-31T04:29:00;100726.81;;;10.63;100.00
36328;BME280;22354;50.012;8.264;2022-10-31T04:31:26;100733.84;;;10.74;100.00
36328;BME280;22354;50.012;8.264;2022-10-31T04:33:51;100738.81;;;10.69;100.00
36328;BME280;22354;50.012;8.264;2022-10-31T04:36:16;100747.53;;;10.71;100.00
36328;BME280;22354;50.012;8.264;2022-10-31T04:38:42;100753.16;;;10.68;100.00
36328;BME280;22354;50.012;8.264;2022-10-31T04:41:07;100761.78;;;10.61;100.00
36328;BME280;22354;50.012;8.264;2022-10-31T04:43:32;100756.44;;;10.61;100.00
36328;BME280;22354;50.012;8.264;2022-10-31T04:45:58;100754.34;;;10.55;100.00
36328;BME280;22354;50.012;8.264;2022-10-31T04:48:23;100751.69;;;10.55;100.00
36328;BME280;22354;50.012;8.264;2022-10-31T04:50:48;100760.09;;;10.60;100.00
36328;BME280;22354;50.012;8.264;2022-10-31T04:53:14;100756.84;;;10.67;100.00
36328;BME280;22354;50.012;8.264;2022-10-31T04:55:39;100757.03;;;10.55;100.00
36328;BME280;22354;50.012;8.264;2022-10-31T04:58:04;100751.09;;;10.52;100.00
36328;BME280;22354;50.012;8.264;2022-10-31T05:00:29;100755.75;;;10.59;100.00
36328;BME280;22354;50.012;8.264;2022-10-31T05:02:56;100746.72;;;10.60;100.00
36328;BME280;22354;50.012;8.264;2022-10-31T05:05:24;100751.38;;;10.58;100.00
36328;BME280;22354;50.012;8.264;2022-10-31T05:07:50;100753.31;;;10.66;100.00
36328;BME280;22354;50.012;8.264;2022-10-31T05:10:17;100749.78;;;10.66;100.00
36328;BME280;22354;50.012;8.264;2022-10-31T05:12:54;100746.41;;;10.63;100.00
36328;BME280;22354;50.012;8.264;2022-10-31T05:15:21;100747.94;;;10.66;100.00
36328;BME280;22354;50.012;8.264;2022-10-31T05:17:48;100749.94;;;10.64;100.00
36328;BME280;22354;50.012;8.264;2022-10-31T05:20:14;100745.72;;;10.61;100.00
36328;BME280;22354;50.012;8.264;2022-10-31T05:22:43;100753.59;;;10.63;100.00
36328;BME280;22354;50.012;8.264;2022-10-31T05:25:10;100753.03;;;10.69;100.00
36328;BME280;22354;50.012;8.264;2022-10-31T05:27:38;100755.00;;;10.67;100.00
36328;BME280;22354;50.012;8.264;2022-10-31T05:30:04;100747.09;;;10.66;100.00
36328;BME280;22354;50.012;8.264;2022-10-31T05:32:29;100751.75;;;10.73;100.00
36328;BME280;22354;50.012;8.264;2022-10-31T05:34:55;100752.47;;;10.66;100.00
36328;BME280;22354;50.012;8.264;2022-10-31T05:37:20;100745.13;;;10.68;100.00
36328;BME280;22354;50.012;8.264;2022-10-31T05:39:45;100753.31;;;10.66;100.00
36328;BME280;22354;50.012;8.264;2022-10-31T05:42:10;100745.84;;;10.70;100.00
36328;BME280;22354;50.012;8.264;2022-10-31T05:44:36;100751.91;;;10.72;100.00
36328;BME280;22354;50.012;8.264;2022-10-31T05:47:01;100760.19;;;10.78;100.00
36328;BME280;22354;50.012;8.264;2022-10-31T05:49:26;100766.84;;;10.74;100.00
36328;BME280;22354;50.012;8.264;2022-10-31T05:51:51;100770.94;;;10.69;100.00
36328;BME280;22354;50.012;8.264;2022-10-31T05:54:17;100763.34;;;10.64;100.00
36328;BME280;22354;50.012;8.264;2022-10-31T05:56:42;100773.47;;;10.70;100.00
36328;BME280;22354;50.012;8.264;2022-10-31T05:59:07;100779.00;;;10.69;100.00
36328;BME280;22354;50.012;8.264;2022-10-31T06:01:32;100777.03;;;10.61;100.00
36328;BME280;22354;50.012;8.264;2022-10-31T06:03:58;100779.84;;;10.59;100.00
36328;BME280;22354;50.012;8.264;2022-10-31T06:06:23;100774.06;;;10.64;100.00
36328;BME280;22354;50.012;8.264;2022-10-31T06:08:48;100767.59;;;10.57;100.00
36328;BME280;22354;50.012;8.264;2022-10-31T06:11:14;100775.91;;;10.54;100.00
36328;BME280;22354;50.012;8.264;2022-10-31T06:13:39;100766.31;;;10.51;100.00
36328;BME280;22354;50.012;8.264;2022-10-31T06:16:04;100762.09;;;10.58;100.00
36328;BME280;22354;50.012;8.264;2022-10-31T06:18:29;100767.75;;;10.55;100.00
36328;BME280;22354;50.012;8.264;2022-10-31T06:20:55;100776.91;;;10.53;100.00
36328;BME280;22354;50.012;8.264;2022-10-31T06:23:20;100770.69;;;10.52;100.00
36328;BME280;22354;50.012;8.264;2022-10-31T06:25:49;100767.16;;;10.61;100.00
36328;BME280;22354;50.012;8.264;2022-10-31T06:28:14;100777.28;;;10.68;100.00
36328;BME280;22354;50.012;8.264;2022-10-31T06:30:40;100784.16;;;10.80;100.00
36328;BME280;22354;50.012;8.264;2022-10-31T06:33:05;100794.50;;;10.65;100.00
36328;BME280;22354;50.012;8.264;2022-10-31T06:35:31;100791.66;;;10.76;100.00
36328;BME280;22354;50.012;8.264;2022-10-31T06:37:56;100787.81;;;10.79;100.00
36328;BME280;22354;50.012;8.264;2022-10-31T06:40:22;100797.16;;;10.75;100.00
36328;BME280;22354;50.012;8.264;2022-10-31T06:42:47;100790.94;;;10.74;100.00
36328;BME280;22354;50.012;8.264;2022-10-31T06:45:12;100797.84;;;10.77;100.00
36328;BME280;22354;50.012;8.264;2022-10-31T06:47:38;100802.03;;;10.89;100.00
36328;BME280;22354;50.012;8.264;2022-10-31T06:50:03;100810.94;;;10.89;100.00
36328;BME280;22354;50.012;8.264;2022-10-31T06:52:29;100813.59;;;10.89;100.00
36328;BME280;22354;50.012;8.264;2022-10-31T06:54:54;100821.50;;;10.91;100.00
36328;BME280;22354;50.012;8.264;2022-10-31T06:59:46;100835.56;;;11.03;100.00
36328;BME280;22354;50.012;8.264;2022-10-31T07:02:11;100851.13;;;10.99;100.00
36328;BME280;22354;50.012;8.264;2022-10-31T07:04:36;100851.25;;;11.07;100.00
36328;BME280;22354;50.012;8.264;2022-10-31T07:07:02;100856.16;;;11.12;100.00
36328;BME280;22354;50.012;8.264;2022-10-31T07:09:27;100855.00;;;11.14;100.00
36328;BME280;22354;50.012;8.264;2022-10-31T07:11:53;100854.16;;;11.14;100.00
36328;BME280;22354;50.012;8.264;2022-10-31T07:14:18;100867.03;;;11.10;100.00
36328;BME280;22354;50.012;8.264;2022-10-31T07:16:43;100862.56;;;11.29;100.00
36328;BME280;22354;50.012;8.264;2022-10-31T07:19:09;100869.09;;;11.26;100.00
36328;BME280;22354;50.012;8.264;2022-10-31T07:21:34;100880.25;;;11.21;100.00
36328;BME280;22354;50.012;8.264;2022-10-31T07:23:59;100885.41;;;11.33;100.00
36328;BME280;22354;50.012;8.264;2022-10-31T07:26:24;100890.91;;;11.41;100.00
36328;BME280;22354;50.012;8.264;2022-10-31T07:28:51;100900.84;;;11.58;100.00
36328;BME280;22354;50.012;8.264;2022-10-31T07:31:16;100926.91;;;11.75;100.00
36328;BME280;22354;50.012;8.264;2022-10-31T07:33:41;100932.16;;;11.67;100.00
36328;BME280;22354;50.012;8.264;2022-10-31T07:36:07;100936.69;;;11.67;100.00
36328;BME280;22354;50.012;8.264;2022-10-31T07:38:32;100947.97;;;11.70;100.00
36328;BME280;22354;50.012;8.264;2022-10-31T07:40:58;100950.50;;;11.81;100.00
36328;BME280;22354;50.012;8.264;2022-10-31T07:43:25;100966.25;;;11.94;100.00
36328;BME280;22354;50.012;8.264;2022-10-31T07:45:51;100975.16;;;11.95;100.00
36328;BME280;22354;50.012;8.264;2022-10-31T07:48:17;100977.41;;;11.99;100.00
36328;BME280;22354;50.012;8.264;2022-10-31T07:50:42;100993.06;;;12.04;100.00
36328;BME280;22354;50.012;8.264;2022-10-31T07:53:12;100999.78;;;12.18;100.00
36328;BME280;22354;50.012;8.264;2022-10-31T07:55:38;100997.25;;;12.34;100.00
36328;BME280;22354;50.012;8.264;2022-10-31T07:58:11;101007.59;;;12.38;100.00
36328;BME280;22354;50.012;8.264;2022-10-31T08:00:39;101015.91;;;12.35;100.00
36328;BME280;22354;50.012;8.264;2022-10-31T08:03:07;101016.03;;;12.44;100.00
36328;BME280;22354;50.012;8.264;2022-10-31T08:05:33;101020.66;;;12.51;100.00
36328;BME280;22354;50.012;8.264;2022-10-31T08:07:59;101038.22;;;12.46;100.00
36328;BME280;22354;50.012;8.264;2022-10-31T08:10:25;101034.53;;;12.47;100.00
36328;BME280;22354;50.012;8.264;2022-10-31T08:15:23;101033.47;;;12.57;100.00
36328;BME280;22354;50.012;8.264;2022-10-31T08:17:48;101038.94;;;12.83;100.00
36328;BME280;22354;50.012;8.264;2022-10-31T08:20:13;101039.88;;;12.92;100.00
36328;BME280;22354;50.012;8.264;2022-10-31T08:22:38;101045.78;;;12.78;100.00
36328;BME280;22354;50.012;8.264;2022-10-31T08:25:04;101050.84;;;12.81;100.00
36328;BME280;22354;50.012;8.264;2022-10-31T08:27:29;101058.88;;;12.90;100.00
36328;BME280;22354;50.012;8.264;2022-10-31T08:29:55;101045.53;;;12.89;100.00
36328;BME280;22354;50.012;8.264;2022-10-31T08:32:20;101048.53;;;12.86;100.00
36328;BME280;22354;50.012;8.264;2022-10-31T08:34:45;101053.00;;;12.77;100.00
36328;BME280;22354;50.012;8.264;2022-10-31T08:37:11;101054.59;;;12.70;100.00
36328;BME280;22354;50.012;8.264;2022-10-31T08:39:36;101042.25;;;12.77;100.00
36328;BME280;22354;50.012;8.264;2022-10-31T08:42:01;101044.63;;;12.80;100.00
36328;BME280;22354;50.012;8.264;2022-10-31T08:44:26;101040.25;;;12.79;100.00
36328;BME280;22354;50.012;8.264;2022-10-31T08:46:52;101030.78;;;12.75;100.00
36328;BME280;22354;50.012;8.264;2022-10-31T08:49:17;101035.25;;;12.84;100.00
36328;BME280;22354;50.012;8.264;2022-10-31T08:51:42;101024.97;;;12.80;100.00
36328;BME280;22354;50.012;8.264;2022-10-31T08:54:07;101025.50;;;12.83;100.00
36328;BME280;22354;50.012;8.264;2022-10-31T08:56:33;101024.13;;;12.97;100.00
36328;BME280;22354;50.012;8.264;2022-10-31T08:58:58;101025.28;;;12.94;100.00
36328;BME280;22354;50.012;8.264;2022-10-31T09:01:23;101021.06;;;12.92;100.00
36328;BME280;22354;50.012;8.264;2022-10-31T09:03:49;101016.03;;;12.97;100.00
36328;BME280;22354;50.012;8.264;2022-10-31T09:06:14;101012.50;;;12.96;100.00
36328;BME280;22354;50.012;8.264;2022-10-31T09:08:39;101011.59;;;12.88;100.00
36328;BME280;22354;50.012;8.264;2022-10-31T09:11:05;101010.81;;;12.95;100.00
36328;BME280;22354;50.012;8.264;2022-10-31T09:13:31;101017.56;;;12.99;100.00
36328;BME280;22354;50.012;8.264;2022-10-31T09:15:57;101012.59;;;13.05;100.00
36328;BME280;22354;50.012;8.264;2022-10-31T09:18:25;101018.66;;;13.07;100.00
36328;BME280;22354;50.012;8.264;2022-10-31T09:20:53;101018.03;;;13.13;100.00
36328;BME280;22354;50.012;8.264;2022-10-31T09:23:21;101019.28;;;13.18;100.00
36328;BME280;22354;50.012;8.264;2022-10-31T09:25:48;101009.78;;;13.14;100.00
36328;BME280;22354;50.012;8.264;2022-10-31T09:28:16;101012.06;;;13.19;100.00
36328;BME280;22354;50.012;8.264;2022-10-31T09:30:42;101020.50;;;13.24;100.00
36328;BME280;22354;50.012;8.264;2022-10-31T09:33:11;101021.34;;;13.24;100.00
36328;BME280;22354;50.012;8.264;2022-10-31T09:35:37;101018.50;;;13.26;100.00
36328;BME280;22354;50.012;8.264;2022-10-31T09:38:05;101015.66;;;13.27;100.00
36328;BME280;22354;50.012;8.264;2022-10-31T09:40:43;101017.41;;;13.37;100.00
36328;BME280;22354;50.012;8.264;2022-10-31T09:48:47;101007.56;;;13.45;100.00
36328;BME280;22354;50.012;8.264;2022-10-31T09:51:19;101005.91;;;13.52;100.00
36328;BME280;22354;50.012;8.264;2022-10-31T09:53:52;100993.50;;;13.60;100.00
36328;BME280;22354;50.012;8.264;2022-10-31T09:56:21;100989.69;;;13.70;100.00
36328;BME280;22354;50.012;8.264;2022-10-31T09:58:50;100999.81;;;13.76;100.00
36328;BME280;22354;50.012;8.264;2022-10-31T10:01:28;101002.06;;;13.81;100.00
36328;BME280;22354;50.012;8.264;2022-10-31T10:03:59;100999.03;;;13.92;100.00
36328;BME280;22354;50.012;8.264;2022-10-31T10:06:33;101009.19;;;13.98;100.00
36328;BME280;22354;50.012;8.264;2022-10-31T10:09:01;101010.19;;;13.97;100.00
36328;BME280;22354;50.012;8.264;2022-10-31T10:14:25;101025.41;;;14.14;100.00
36328;BME280;22354;50.012;8.264;2022-10-31T10:17:02;101025.63;;;14.21;100.00
36328;BME280;22354;50.012;8.264;2022-10-31T10:22:12;101036.25;;;14.31;100.00
36328;BME280;22354;50.012;8.264;2022-10-31T10:28:09;101034.78;;;14.36;100.00
36328;BME280;22354;50.012;8.264;2022-10-31T10:30:44;101043.53;;;14.38;100.00
36328;BME280;22354;50.012;8.264;2022-10-31T10:33:24;101049.50;;;14.50;100.00
36328;BME280;22354;50.012;8.264;2022-10-31T10:35:55;101049.34;;;14.52;100.00
36328;BME280;22354;50.012;8.264;2022-10-31T10:38:41;101047.16;;;14.55;100.00
36328;BME280;22354;50.012;8.264;2022-10-31T10:41:14;101036.25;;;14.65;100.00
36328;BME280;22354;50.012;8.264;2022-10-31T10:43:40;101034.03;;;14.68;100.00
36328;BME280;22354;50.012;8.264;2022-10-31T10:49:15;101030.34;;;14.69;100.00
36328;BME280;22354;50.012;8.264;2022-10-31T10:52:10;101022.78;;;14.81;100.00
36328;BME280;22354;50.012;8.264;2022-10-31T10:55:03;101027.50;;;14.95;100.00
36328;BME280;22354;50.012;8.264;2022-10-31T11:00:18;101016.22;;;15.16;100.00
36328;BME280;22354;50.012;8.264;2022-10-31T11:02:44;101012.16;;;15.20;100.00
36328;BME280;22354;50.012;8.264;2022-10-31T11:05:18;101007.31;;;15.24;100.00
36328;BME280;22354;50.012;8.264;2022-10-31T11:07:46;100995.81;;;15.30;100.00
36328;BME280;22354;50.012;8.264;2022-10-31T11:10:13;100988.72;;;15.37;100.00
36328;BME280;22354;50.012;8.264;2022-10-31T11:12:43;100994.25;;;15.52;100.00
36328;BME280;22354;50.012;8.264;2022-10-31T11:15:23;100992.56;;;15.67;100.00
36328;BME280;22354;50.012;8.264;2022-10-31T11:17:51;100978.56;;;15.63;100.00
36328;BME280;22354;50.012;8.264;2022-10-31T11:22:44;100982.06;;;15.72;100.00
36328;BME280;22354;50.012;8.264;2022-10-31T11:27:44;100968.19;;;15.83;100.00
36328;BME280;22354;50.012;8.264;2022-10-31T11:30:12;100964.47;;;15.84;100.00
36328;BME280;22354;50.012;8.264;2022-10-31T11:32:49;100955.03;;;15.80;100.00
36328;BME280;22354;50.012;8.264;2022-10-31T11:35:17;100951.31;;;15.89;100.00
36328;BME280;22354;50.012;8.264;2022-10-31T11:37:45;100937.06;;;15.96;100.00
36328;BME280;22354;50.012;8.264;2022-10-31T11:40:18;100950.03;;;16.00;100.00
36328;BME280;22354;50.012;8.264;2022-10-31T11:42:44;100939.78;;;15.96;100.00
36328;BME280;22354;50.012;8.264;2022-10-31T11:47:50;100942.28;;;16.05;100.00
36328;BME280;22354;50.012;8.264;2022-10-31T11:50:28;100943.19;;;16.20;100.00
36328;BME280;22354;50.012;8.264;2022-10-31T11:52:56;100948.44;;;16.22;100.00
36328;BME280;22354;50.012;8.264;2022-10-31T11:55:36;100946.38;;;16.24;100.00
36328;BME280;22354;50.012;8.264;2022-10-31T11:58:03;100941.75;;;16.41;100.00
36328;BME280;22354;50.012;8.264;2022-10-31T12:00:33;100943.09;;;16.37;100.00
36328;BME280;22354;50.012;8.264;2022-10-31T12:08:30;100923.16;;;16.38;100.00
36328;BME280;22354;50.012;8.264;2022-10-31T12:16:46;100867.31;;;16.22;100.00
36328;BME280;22354;50.012;8.264;2022-10-31T12:30:19;100873.94;;;16.42;100.00
36328;BME280;22354;50.012;8.264;2022-10-31T12:38:43;100853.44;;;16.48;100.00
36328;BME280;22354;50.012;8.264;2022-10-31T12:41:40;100850.97;;;16.61;100.00
36328;BME280;22354;50.012;8.264;2022-10-31T12:47:28;100835.81;;;16.75;100.00
36328;BME280;22354;50.012;8.264;2022-10-31T12:50:18;100832.84;;;16.70;100.00
36328;BME280;22354;50.012;8.264;2022-10-31T12:52:59;100829.00;;;16.79;100.00
36328;BME280;22354;50.012;8.264;2022-10-31T12:55:41;100825.66;;;16.77;100.00
36328;BME280;22354;50.012;8.264;2022-10-31T12:58:25;100822.84;;;16.70;100.00
36328;BME280;22354;50.012;8.264;2022-10-31T13:01:04;100810.94;;;16.57;100.00
36328;BME280;22354;50.012;8.264;2022-10-31T13:03:44;100801.44;;;16.61;100.00
36328;BME280;22354;50.012;8.264;2022-10-31T13:06:16;100806.44;;;16.72;100.00
36328;BME280;22354;50.012;8.264;2022-10-31T13:08:55;100802.44;;;16.68;100.00
36328;BME280;22354;50.012;8.264;2022-10-31T13:11:42;100793.59;;;16.66;100.00
36328;BME280;22354;50.012;8.264;2022-10-31T13:16:47;100783.16;;;16.63;100.00
36328;BME280;22354;50.012;8.264;2022-10-31T13:19:20;100774.84;;;16.64;100.00
36328;BME280;22354;50.012;8.264;2022-10-31T13:22:02;100765.69;;;16.65;100.00
36328;BME280;22354;50.012;8.264;2022-10-31T13:24:43;100766.88;;;16.71;100.00
36328;BME280;22354;50.012;8.264;2022-10-31T13:30:22;100740.84;;;16.70;100.00
36328;BME280;22354;50.012;8.264;2022-10-31T13:33:11;100744.16;;;16.57;100.00
36328;BME280;22354;50.012;8.264;2022-10-31T13:38:40;100765.59;;;16.96;100.00
36328;BME280;22354;50.012;8.264;2022-10-31T13:44:13;100756.06;;;16.86;100.00
36328;BME280;22354;50.012;8.264;2022-10-31T13:46:41;100747.84;;;16.79;100.00
36328;BME280;22354;50.012;8.264;2022-10-31T13:52:15;100730.59;;;16.80;100.00
36328;BME280;22354;50.012;8.264;2022-10-31T13:54:43;100716.56;;;16.62;100.00
36328;BME280;22354;50.012;8.264;2022-10-31T13:57:22;100715.97;;;16.51;100.00
36328;BME280;22354;50.012;8.264;2022-10-31T13:59:52;100733.16;;;16.59;100.00
36328;BME280;22354;50.012;8.264;2022-10-31T14:02:25;100734.69;;;16.91;100.00
36328;BME280;22354;50.012;8.264;2022-10-31T14:04:55;100751.84;;;17.13;100.00
36328;BME280;22354;50.012;8.264;2022-10-31T14:07:22;100756.25;;;16.99;100.00
36328;BME280;22354;50.012;8.264;2022-10-31T14:12:40;100777.13;;;17.34;100.00
36328;BME280;22354;50.012;8.264;2022-10-31T14:15:18;100770.03;;;17.19;100.00
36328;BME280;22354;50.012;8.264;2022-10-31T14:17:52;100743.09;;;16.81;100.00
36328;BME280;22354;50.012;8.264;2022-10-31T14:22:45;100744.00;;;17.18;100.00
36328;BME280;22354;50.012;8.264;2022-10-31T14:27:50;100740.69;;;17.37;100.00
36328;BME280;22354;50.012;8.264;2022-10-31T14:30:20;100742.69;;;17.14;100.00
36328;BME280;22354;50.012;8.264;2022-10-31T14:33:18;100729.56;;;16.96;100.00
36328;BME280;22354;50.012;8.264;2022-10-31T14:36:02;100723.84;;;16.91;100.00